^^
Saratoga-Weather Station Historical Data
Daily Summary for April 22, 2021 Units:  Both    English   Metric
Daily Weekly Monthly Yearly Custom
  High: Low: Average:
Temperature: 41.4 °F /  5.2 °C 38.8 °F /  3.8 °C 39.6 °F /  4.2 °C
Dew Point: 37.2 °F /  2.9 °C 35.6 °F /  2 °C 36.3 °F /  2.4 °C
Humidity: 90% 84% 88%
Wind Speed: 0.9mph /  1.4km/h - 0.1mph /  0.1km/h
Wind Gust: 2mph /  3.2km/h - -
Wind- - SE
Pressure: 30.1 in /  1019.3 hPa 30 in /  1015.6 hPa -
Precipitation: 0 in /  0.0 mm    
Historical Graphs
 
 
Tabular Data for April 22, 2021
Time Temperature Dew Point Pressure Wind Wind Speed Wind Gust Humidity Rainfall Rate (Hourly) solar
00:03 41.2 °F /  5.1 °C 36.7 °F /  2.6 °C 30in /  1015.6hPa Calm     84% 0in /  0.0mm 0 W/m2
00:08 41.4 °F /  5.2 °C 36.9 °F /  2.7 °C 30in /  1015.6hPa Calm     84% 0in /  0.0mm 0 W/m2
00:13 41.4 °F /  5.2 °C 36.9 °F /  2.7 °C 30in /  1015.6hPa Calm     84% 0in /  0.0mm 0 W/m2
00:18 41.4 °F /  5.2 °C 36.9 °F /  2.7 °C 30in /  1015.6hPa Calm     84% 0in /  0.0mm 0 W/m2
00:23 41.2 °F /  5.1 °C 36.7 °F /  2.6 °C 30in /  1015.9hPa Calm     84% 0in /  0.0mm 0 W/m2
00:28 40.8 °F /  4.9 °C 36.3 °F /  2.4 °C 30in /  1015.6hPa Calm     84% 0in /  0.0mm 0 W/m2
00:33 40.6 °F /  4.8 °C 36.1 °F /  2.3 °C 30in /  1015.6hPa Calm     84% 0in /  0.0mm 0 W/m2
00:38 40.6 °F /  4.8 °C 36.5 °F /  2.5 °C 30in /  1015.9hPa Calm     85% 0in /  0.0mm 0 W/m2
00:43 40.6 °F /  4.8 °C 36.5 °F /  2.5 °C 30in /  1015.9hPa Calm     85% 0in /  0.0mm 0 W/m2
00:48 40.6 °F /  4.8 °C 36.9 °F /  2.7 °C 30in /  1015.9hPa Calm     86% 0in /  0.0mm 0 W/m2
00:53 40.5 °F /  4.7 °C 36.7 °F /  2.6 °C 30in /  1015.9hPa Calm     86% 0in /  0.0mm 0 W/m2
00:58 40.5 °F /  4.7 °C 36.7 °F /  2.6 °C 30in /  1015.9hPa Calm     86% 0in /  0.0mm 0 W/m2
01:03 40.3 °F /  4.6 °C 36.5 °F /  2.5 °C 30in /  1015.9hPa Calm     86% 0in /  0.0mm 0 W/m2
01:08 40.3 °F /  4.6 °C 36.7 °F /  2.6 °C 30in /  1015.9hPa Calm     87% 0in /  0.0mm 0 W/m2
01:13 40.3 °F /  4.6 °C 36.7 °F /  2.6 °C 30in /  1015.9hPa Calm     87% 0in /  0.0mm 0 W/m2
01:18 40.3 °F /  4.6 °C 36.5 °F /  2.5 °C 30in /  1015.9hPa Calm     86% 0in /  0.0mm 0 W/m2
01:23 40.1 °F /  4.5 °C 36.3 °F /  2.4 °C 30in /  1015.9hPa Calm     86% 0in /  0.0mm 0 W/m2
01:28 39.9 °F /  4.4 °C 36.1 °F /  2.3 °C 30in /  1016.3hPa Calm     86% 0in /  0.0mm 0 W/m2
01:34 39.7 °F /  4.3 °C 36 °F /  2.2 °C 30in /  1016.3hPa Calm     86% 0in /  0.0mm 0 W/m2
01:39 39.7 °F /  4.3 °C 36 °F /  2.2 °C 30in /  1016.3hPa Calm     86% 0in /  0.0mm 0 W/m2
01:44 39.6 °F /  4.2 °C 36 °F /  2.2 °C 30in /  1016.3hPa Calm     87% 0in /  0.0mm 0 W/m2
01:49 39.7 °F /  4.3 °C 36.1 °F /  2.3 °C 30in /  1016.3hPa Calm     87% 0in /  0.0mm 0 W/m2
01:54 39.7 °F /  4.3 °C 36.1 °F /  2.3 °C 30in /  1016.3hPa Calm     87% 0in /  0.0mm 0 W/m2
01:59 39.6 °F /  4.2 °C 36 °F /  2.2 °C 30in /  1016.6hPa Calm     87% 0in /  0.0mm 0 W/m2
02:04 39.7 °F /  4.3 °C 36.5 °F /  2.5 °C 30in /  1016.3hPa Calm     88% 0in /  0.0mm 0 W/m2
02:09 39.7 °F /  4.3 °C 36.1 °F /  2.3 °C 30in /  1016.6hPa Calm     87% 0in /  0.0mm 0 W/m2
02:14 39.6 °F /  4.2 °C 36 °F /  2.2 °C 30in /  1016.6hPa Calm     87% 0in /  0.0mm 0 W/m2
02:19 39.4 °F /  4.1 °C 35.8 °F /  2.1 °C 30in /  1016.6hPa Calm     87% 0in /  0.0mm 0 W/m2
02:24 39 °F /  3.9 °C 35.8 °F /  2.1 °C 30in /  1016.6hPa Calm     88% 0in /  0.0mm 0 W/m2
02:29 39 °F /  3.9 °C 35.8 °F /  2.1 °C 30in /  1016.6hPa Calm     88% 0in /  0.0mm 0 W/m2
02:34 39 °F /  3.9 °C 35.8 °F /  2.1 °C 30in /  1016.9hPa Calm     88% 0in /  0.0mm 0 W/m2
02:39 38.8 °F /  3.8 °C 35.6 °F /  2 °C 30in /  1016.9hPa Calm     88% 0in /  0.0mm 0 W/m2
02:44 38.8 °F /  3.8 °C 36 °F /  2.2 °C 30in /  1016.9hPa Calm   1mph /  1.6km/h 89% 0in /  0.0mm 0 W/m2
02:49 38.8 °F /  3.8 °C 36 °F /  2.2 °C 30in /  1016.9hPa Calm     89% 0in /  0.0mm 0 W/m2
02:54 39 °F /  3.9 °C 36.3 °F /  2.4 °C 30in /  1016.9hPa Calm     90% 0in /  0.0mm 0 W/m2
02:59 39.4 °F /  4.1 °C 36.5 °F /  2.5 °C 30in /  1016.9hPa Calm     89% 0in /  0.0mm 0 W/m2
03:04 39.6 °F /  4.2 °C 36.5 °F /  2.5 °C 30in /  1016.9hPa Calm     89% 0in /  0.0mm 0 W/m2
03:09 39.6 °F /  4.2 °C 36.5 °F /  2.5 °C 30in /  1016.9hPa Calm     89% 0in /  0.0mm 0 W/m2
03:14 39.6 °F /  4.2 °C 36.5 °F /  2.5 °C 30in /  1016.9hPa Calm     89% 0in /  0.0mm 0 W/m2
03:19 39.6 °F /  4.2 °C 36.3 °F /  2.4 °C 30in /  1016.9hPa Calm     88% 0in /  0.0mm 0 W/m2
03:24 39.4 °F /  4.1 °C 36.1 °F /  2.3 °C 30in /  1016.9hPa Calm     88% 0in /  0.0mm 0 W/m2
03:44 39 °F /  3.9 °C 35.8 °F /  2.1 °C 30in /  1016.9hPa Calm     88% 0in /  0.0mm 0 W/m2
03:49 38.8 °F /  3.8 °C 35.6 °F /  2 °C 30in /  1016.9hPa Calm     88% 0in /  0.0mm 0 W/m2
03:54 38.8 °F /  3.8 °C 36 °F /  2.2 °C 30in /  1016.9hPa Calm   1mph /  1.6km/h 89% 0in /  0.0mm 0 W/m2
03:59 38.8 °F /  3.8 °C 36 °F /  2.2 °C 30in /  1016.9hPa Calm     89% 0in /  0.0mm 0 W/m2
04:04 38.8 °F /  3.8 °C 36 °F /  2.2 °C 30in /  1016.9hPa Calm     89% 0in /  0.0mm 0 W/m2
04:09 39 °F /  3.9 °C 36.1 °F /  2.3 °C 30in /  1016.9hPa ESE 0.9mph /  1.4km/h 1mph /  1.6km/h 89% 0in /  0.0mm 0 W/m2
04:14 39 °F /  3.9 °C 36.1 °F /  2.3 °C 30in /  1016.9hPa Calm     89% 0in /  0.0mm 0 W/m2
04:19 39 °F /  3.9 °C 36.1 °F /  2.3 °C 30in /  1016.9hPa Calm     89% 0in /  0.0mm 0 W/m2
04:24 39 °F /  3.9 °C 36.1 °F /  2.3 °C 30in /  1017.3hPa Calm     89% 0in /  0.0mm 0 W/m2
04:29 39 °F /  3.9 °C 36.1 °F /  2.3 °C 30in /  1017.3hPa Calm     89% 0in /  0.0mm 0 W/m2
04:34 39 °F /  3.9 °C 36.3 °F /  2.4 °C 30in /  1017.3hPa Calm     90% 0in /  0.0mm 0 W/m2
04:39 39 °F /  3.9 °C 36.3 °F /  2.4 °C 30in /  1017.3hPa Calm     90% 0in /  0.0mm 0 W/m2
04:44 39 °F /  3.9 °C 36.3 °F /  2.4 °C 30in /  1017.3hPa Calm     90% 0in /  0.0mm 0 W/m2
04:49 39 °F /  3.9 °C 36.3 °F /  2.4 °C 30in /  1017.3hPa Calm     90% 0in /  0.0mm 0 W/m2
04:54 39 °F /  3.9 °C 36.3 °F /  2.4 °C 30in /  1017.3hPa Calm     90% 0in /  0.0mm 0 W/m2
04:59 39 °F /  3.9 °C 36.3 °F /  2.4 °C 30in /  1017.3hPa Calm     90% 0in /  0.0mm 0 W/m2
05:04 39 °F /  3.9 °C 36.3 °F /  2.4 °C 30in /  1017.3hPa ESE 0.9mph /  1.4km/h 2mph /  3.2km/h 90% 0in /  0.0mm 0 W/m2
05:09 39.2 °F /  4 °C 36.5 °F /  2.5 °C 30.1in /  1017.6hPa Calm   1mph /  1.6km/h 90% 0in /  0.0mm 0 W/m2
05:14 39.4 °F /  4.1 °C 36.7 °F /  2.6 °C 30.1in /  1017.6hPa Calm     90% 0in /  0.0mm 0 W/m2
05:19 39.4 °F /  4.1 °C 36.7 °F /  2.6 °C 30.1in /  1017.6hPa Calm     90% 0in /  0.0mm 0 W/m2
05:24 39.4 °F /  4.1 °C 36.7 °F /  2.6 °C 30.1in /  1017.6hPa Calm     90% 0in /  0.0mm 0 W/m2
05:29 39.4 °F /  4.1 °C 36.7 °F /  2.6 °C 30.1in /  1018.0hPa Calm     90% 0in /  0.0mm 0 W/m2
05:34 39.6 °F /  4.2 °C 36.9 °F /  2.7 °C 30.1in /  1018.0hPa Calm   1mph /  1.6km/h 90% 0in /  0.0mm 0 W/m2
05:39 39.7 °F /  4.3 °C 37 °F /  2.8 °C 30.1in /  1017.6hPa Calm     90% 0in /  0.0mm 0 W/m2
05:44 39.9 °F /  4.4 °C 37.2 °F /  2.9 °C 30.1in /  1018.0hPa ESE 0.9mph /  1.4km/h 1mph /  1.6km/h 90% 0in /  0.0mm 0 W/m2
05:49 39.9 °F /  4.4 °C 37.2 °F /  2.9 °C 30.1in /  1018.0hPa Calm   2mph /  3.2km/h 90% 0in /  0.0mm 0 W/m2
05:54 39.9 °F /  4.4 °C 36.9 °F /  2.7 °C 30.1in /  1018.0hPa SSE 0.9mph /  1.4km/h 2mph /  3.2km/h 89% 0in /  0.0mm 0 W/m2
06:14 39.6 °F /  4.2 °C 36.5 °F /  2.5 °C 30.1in /  1018.0hPa East 0.9mph /  1.4km/h 2mph /  3.2km/h 89% 0in /  0.0mm 0 W/m2
06:19 39.6 °F /  4.2 °C 36.5 °F /  2.5 °C 30.1in /  1017.6hPa East 0.9mph /  1.4km/h 2mph /  3.2km/h 89% 0in /  0.0mm 0 W/m2
06:24 39.7 °F /  4.3 °C 36.7 °F /  2.6 °C 30.1in /  1018.0hPa Calm   1mph /  1.6km/h 89% 0in /  0.0mm 0 W/m2
06:29 39.7 °F /  4.3 °C 36.7 °F /  2.6 °C 30.1in /  1018.0hPa Calm   2mph /  3.2km/h 89% 0in /  0.0mm 0 W/m2
06:34 39.6 °F /  4.2 °C 36.5 °F /  2.5 °C 30.1in /  1018.0hPa Calm     89% 0in /  0.0mm 0 W/m2
06:39 39.6 °F /  4.2 °C 36.5 °F /  2.5 °C 30.1in /  1018.0hPa Calm   2mph /  3.2km/h 89% 0in /  0.0mm 0 W/m2
06:44 39.6 °F /  4.2 °C 36.5 °F /  2.5 °C 30.1in /  1018.0hPa Calm     89% 0in /  0.0mm 0 W/m2
06:49 39.4 °F /  4.1 °C 36.5 °F /  2.5 °C 30.1in /  1018.0hPa Calm     89% 0in /  0.0mm 0 W/m2
06:54 39.4 °F /  4.1 °C 36.5 °F /  2.5 °C 30.1in /  1018.0hPa Calm     89% 0in /  0.0mm 0 W/m2
07:12 39.4 °F /  4.1 °C 36.1 °F /  2.3 °C 30.1in /  1018.0hPa Calm     88% 0in /  0.0mm 0 W/m2
07:17 39.4 °F /  4.1 °C 36.1 °F /  2.3 °C 30.1in /  1018.3hPa Calm     88% 0in /  0.0mm 0 W/m2
07:22 39.2 °F /  4 °C 36.3 °F /  2.4 °C 30.1in /  1018.0hPa Calm     89% 0in /  0.0mm 0 W/m2
07:27 39.2 °F /  4 °C 36.3 °F /  2.4 °C 30.1in /  1018.0hPa Calm     89% 0in /  0.0mm 0 W/m2
07:32 39.2 °F /  4 °C 36.3 °F /  2.4 °C 30.1in /  1018.0hPa Calm     89% 0in /  0.0mm 0 W/m2
07:37 39 °F /  3.9 °C 36.1 °F /  2.3 °C 30.1in /  1018.0hPa Calm     89% 0in /  0.0mm 7 W/m2
07:42 39 °F /  3.9 °C 36.1 °F /  2.3 °C 30.1in /  1018.3hPa Calm     89% 0in /  0.0mm 12 W/m2
07:47 39 °F /  3.9 °C 36.1 °F /  2.3 °C 30.1in /  1018.3hPa Calm     89% 0in /  0.0mm 14 W/m2
07:52 39 °F /  3.9 °C 36.1 °F /  2.3 °C 30.1in /  1018.3hPa Calm     89% 0in /  0.0mm 18 W/m2
07:57 39 °F /  3.9 °C 36.1 °F /  2.3 °C 30.1in /  1018.3hPa SW 0.9mph /  1.4km/h 1mph /  1.6km/h 89% 0in /  0.0mm 21 W/m2
08:16 39.2 °F /  4 °C 36.3 °F /  2.4 °C 30.1in /  1018.6hPa Calm   1mph /  1.6km/h 89% 0in /  0.0mm 37 W/m2
08:21 39.2 °F /  4 °C 36.3 °F /  2.4 °C 30.1in /  1018.6hPa Calm     89% 0in /  0.0mm 40 W/m2
08:26 39.4 °F /  4.1 °C 36.5 °F /  2.5 °C 30.1in /  1019.0hPa Calm     89% 0in /  0.0mm 44 W/m2
08:31 39.4 °F /  4.1 °C 36.5 °F /  2.5 °C 30.1in /  1019.0hPa Calm     89% 0in /  0.0mm 47 W/m2
08:36 39.4 °F /  4.1 °C 36.5 °F /  2.5 °C 30.1in /  1019.0hPa Calm     89% 0in /  0.0mm 51 W/m2
08:41 39.4 °F /  4.1 °C 36.7 °F /  2.6 °C 30.1in /  1019.0hPa Calm     90% 0in /  0.0mm 54 W/m2
08:46 39.4 °F /  4.1 °C 36.7 °F /  2.6 °C 30.1in /  1019.0hPa Calm   1mph /  1.6km/h 90% 0in /  0.0mm 60 W/m2
08:51 39.6 °F /  4.2 °C 36.9 °F /  2.7 °C 30.1in /  1019.0hPa Calm     90% 0in /  0.0mm 63 W/m2
08:56 39.7 °F /  4.3 °C 37 °F /  2.8 °C 30.1in /  1019.3hPa Calm     90% 0in /  0.0mm 67 W/m2
09:01 39.9 °F /  4.4 °C 37.2 °F /  2.9 °C 30.1in /  1019.0hPa Calm     90% 0in /  0.0mm 76 W/m2
Juneau County Weather
Compliments of Weather Underground - 4 mb